createdAt,value
2022-07-26T00:00:44.923Z,60.10
2022-07-26T00:03:11.851Z,60.20
2022-07-26T00:05:38.912Z,59.80
2022-07-26T00:08:13.284Z,60.10
2022-07-26T00:10:43.517Z,59.80
2022-07-26T00:13:11.351Z,61.40
2022-07-26T00:15:38.707Z,59.90
2022-07-26T00:18:05.673Z,60.10
2022-07-26T00:20:35.193Z,59.20
2022-07-26T00:23:02.765Z,61.00
2022-07-26T00:25:29.712Z,60.40
2022-07-26T00:27:56.720Z,60.60
2022-07-26T00:30:24.044Z,60.70
2022-07-26T00:32:52.636Z,60.60
2022-07-26T00:35:20.594Z,60.30
2022-07-26T00:37:47.716Z,60.20
2022-07-26T00:40:14.875Z,60.70
2022-07-26T00:42:42.056Z,60.20
2022-07-26T00:45:10.598Z,60.60
2022-07-26T00:47:37.926Z,59.70
2022-07-26T00:50:08.043Z,60.70
2022-07-26T00:52:35.104Z,60.30
2022-07-26T00:55:02.388Z,60.90
2022-07-26T00:57:29.247Z,60.80
2022-07-26T00:59:57.301Z,61.40
2022-07-26T01:02:24.131Z,61.50
2022-07-26T01:04:50.996Z,61.10
2022-07-26T01:07:17.845Z,61.20
2022-07-26T01:09:45.162Z,61.20
2022-07-26T01:12:12.622Z,61.40
2022-07-26T01:14:43.234Z,60.00
2022-07-26T01:17:10.870Z,61.00
2022-07-26T01:19:37.980Z,61.30
2022-07-26T01:22:04.819Z,60.10
2022-07-26T01:24:31.625Z,61.60
2022-07-26T01:26:58.499Z,61.50
2022-07-26T01:29:34.773Z,61.70
2022-07-26T01:32:04.851Z,61.60
2022-07-26T01:34:31.872Z,60.20
2022-07-26T01:36:58.820Z,62.00
2022-07-26T01:39:25.766Z,62.00
2022-07-26T01:41:53.558Z,63.00
2022-07-26T01:44:20.333Z,62.10
2022-07-26T01:46:47.087Z,60.30
2022-07-26T01:49:14.129Z,61.90
2022-07-26T01:51:41.155Z,60.40
2022-07-26T01:54:08.336Z,61.80
2022-07-26T01:56:35.554Z,61.60
2022-07-26T01:59:02.544Z,60.50
2022-07-26T02:01:39.321Z,62.10
2022-07-26T02:04:08.249Z,60.50
2022-07-26T02:06:35.507Z,61.70
2022-07-26T02:09:07.511Z,62.50
2022-07-26T02:11:34.565Z,61.60
2022-07-26T02:14:03.135Z,62.20
2022-07-26T02:16:29.989Z,62.70
2022-07-26T02:18:56.711Z,63.10
2022-07-26T02:21:23.484Z,61.20
2022-07-26T02:23:50.296Z,62.50
2022-07-26T02:26:17.229Z,62.40
2022-07-26T02:28:43.995Z,62.30
2022-07-26T02:31:11.781Z,62.70
2022-07-26T02:33:42.612Z,62.30
2022-07-26T02:36:09.394Z,61.80
2022-07-26T02:38:36.332Z,61.20
2022-07-26T02:41:03.256Z,62.10
2022-07-26T02:43:31.608Z,61.10
2022-07-26T02:46:01.073Z,61.30
2022-07-26T02:48:29.401Z,62.50
2022-07-26T02:50:56.268Z,62.30
2022-07-26T02:53:23.057Z,62.70
2022-07-26T02:55:50.212Z,62.30
2022-07-26T02:58:17.070Z,63.60
2022-07-26T03:00:43.931Z,62.80
2022-07-26T03:03:13.889Z,62.30
2022-07-26T03:05:40.922Z,62.20
2022-07-26T03:08:07.989Z,62.60
2022-07-26T03:10:34.785Z,62.70
2022-07-26T03:13:02.005Z,62.80
2022-07-26T03:15:29.011Z,62.50
2022-07-26T03:17:56.100Z,62.20
2022-07-26T03:20:23.323Z,61.50
2022-07-26T03:22:50.271Z,62.60
2022-07-26T03:25:17.255Z,62.60
2022-07-26T03:27:44.145Z,62.60
2022-07-26T03:30:11.919Z,63.80
2022-07-26T03:32:39.100Z,61.00
2022-07-26T03:35:07.448Z,62.10
2022-07-26T03:37:45.118Z,61.50
2022-07-26T03:40:16.658Z,61.30
2022-07-26T03:42:44.734Z,62.00
2022-07-26T03:45:13.016Z,62.20
2022-07-26T03:47:39.897Z,61.80
2022-07-26T03:50:07.590Z,63.40
2022-07-26T03:52:34.812Z,60.40
2022-07-26T03:55:21.514Z,60.40
2022-07-26T03:57:48.344Z,60.10
2022-07-26T04:00:15.274Z,60.30
2022-07-26T04:02:42.040Z,61.40
2022-07-26T04:05:09.504Z,62.70
2022-07-26T04:07:51.538Z,59.70
2022-07-26T04:10:21.297Z,57.80
2022-07-26T04:12:48.731Z,59.80
2022-07-26T04:15:16.951Z,59.90
2022-07-26T04:17:43.758Z,60.30
2022-07-26T04:20:12.547Z,60.20
2022-07-26T04:22:40.015Z,58.90
2022-07-26T04:25:08.526Z,59.60
2022-07-26T04:27:35.991Z,59.10
2022-07-26T04:30:03.072Z,59.60
2022-07-26T04:32:29.915Z,59.10
2022-07-26T04:34:56.904Z,59.50
2022-07-26T04:37:23.661Z,59.30
2022-07-26T04:39:54.581Z,59.40
2022-07-26T04:42:21.994Z,59.60
2022-07-26T04:44:48.779Z,59.50
2022-07-26T04:47:15.612Z,59.20
2022-07-26T04:49:42.554Z,58.30
2022-07-26T04:52:09.338Z,59.30
2022-07-26T04:54:36.199Z,59.00
2022-07-26T04:57:03.209Z,59.60
2022-07-26T04:59:32.762Z,59.40
2022-07-26T05:02:00.073Z,58.50
2022-07-26T05:04:27.193Z,58.50
2022-07-26T05:06:54.062Z,59.50
2022-07-26T05:09:20.962Z,58.40
2022-07-26T05:11:47.719Z,59.60
2022-07-26T05:14:14.507Z,59.30
2022-07-26T05:16:44.346Z,59.20
2022-07-26T05:19:13.759Z,58.90
2022-07-26T05:21:40.616Z,58.10
2022-07-26T05:24:08.207Z,58.30
2022-07-26T05:26:35.440Z,58.60
2022-07-26T05:29:02.214Z,59.30
2022-07-26T05:31:29.144Z,59.90
2022-07-26T05:33:56.078Z,58.80
2022-07-26T05:36:23.075Z,60.40
2022-07-26T05:38:49.863Z,59.40
2022-07-26T05:41:16.861Z,60.70
2022-07-26T05:43:43.701Z,59.90
2022-07-26T05:46:12.091Z,60.40
2022-07-26T05:48:40.100Z,59.80
2022-07-26T05:51:07.435Z,60.00
2022-07-26T05:53:34.575Z,59.90
2022-07-26T05:56:01.380Z,59.20
2022-07-26T05:58:28.242Z,59.20
2022-07-26T06:00:55.063Z,58.90
2022-07-26T06:03:22.163Z,58.90
2022-07-26T06:06:28.241Z,57.00
2022-07-26T06:08:55.923Z,60.20
2022-07-26T06:11:22.739Z,59.50
2022-07-26T06:13:53.600Z,59.00
2022-07-26T06:16:23.147Z,59.00
2022-07-26T06:18:51.082Z,59.00
2022-07-26T06:21:17.963Z,59.30
2022-07-26T06:23:44.743Z,60.40
2022-07-26T06:26:12.188Z,59.30
2022-07-26T06:28:39.811Z,59.70
2022-07-26T06:31:07.123Z,59.10
2022-07-26T06:33:33.848Z,58.70
2022-07-26T06:36:00.730Z,58.90
2022-07-26T06:38:28.330Z,60.10
2022-07-26T06:40:55.221Z,60.20
2022-07-26T06:43:22.087Z,59.80
2022-07-26T06:45:49.377Z,60.50
2022-07-26T06:48:16.320Z,59.60
2022-07-26T06:50:43.697Z,59.40
2022-07-26T06:53:10.436Z,58.70
2022-07-26T06:55:37.195Z,58.60
2022-07-26T06:58:05.051Z,58.30
2022-07-26T07:00:31.903Z,58.30
2022-07-26T07:02:58.766Z,58.10
2022-07-26T07:05:25.812Z,58.70
2022-07-26T07:07:57.791Z,58.80
2022-07-26T07:10:25.279Z,58.80
2022-07-26T07:12:52.036Z,59.10
2022-07-26T07:15:18.995Z,58.70
2022-07-26T07:17:45.745Z,58.10
2022-07-26T07:20:12.699Z,57.90
2022-07-26T07:22:39.552Z,58.00
2022-07-26T07:25:06.608Z,59.10
2022-07-26T07:27:33.510Z,59.20
2022-07-26T07:30:00.295Z,58.90
2022-07-26T07:32:27.111Z,58.20
2022-07-26T07:34:55.322Z,59.30
2022-07-26T07:37:22.182Z,59.20
2022-07-26T07:39:50.690Z,59.50
2022-07-26T07:42:19.238Z,57.80
2022-07-26T07:44:46.216Z,58.50
2022-07-26T07:47:14.039Z,57.70
2022-07-26T07:49:40.867Z,57.60
2022-07-26T07:52:07.681Z,58.60
2022-07-26T07:54:34.485Z,58.50
2022-07-26T07:57:01.330Z,57.60
2022-07-26T07:59:28.842Z,58.60
2022-07-26T08:01:55.856Z,58.30
2022-07-26T08:04:22.707Z,58.60
2022-07-26T08:06:50.261Z,58.90
2022-07-26T08:09:19.046Z,57.30
2022-07-26T08:11:50.977Z,57.10
2022-07-26T08:14:18.883Z,58.00
2022-07-26T08:16:45.920Z,58.00
2022-07-26T08:19:13.292Z,58.20
2022-07-26T08:21:42.978Z,57.00
2022-07-26T08:24:10.802Z,58.60
2022-07-26T08:26:38.009Z,57.80
2022-07-26T08:29:05.003Z,57.80
2022-07-26T08:31:31.915Z,58.00
2022-07-26T08:33:58.719Z,57.00
2022-07-26T08:36:31.875Z,56.90
2022-07-26T08:38:59.478Z,56.60
2022-07-26T08:41:26.377Z,58.00
2022-07-26T08:43:53.929Z,56.80
2022-07-26T08:46:26.489Z,58.20
2022-07-26T08:48:57.519Z,59.10
2022-07-26T08:51:25.774Z,57.30
2022-07-26T08:54:04.717Z,57.70
2022-07-26T08:56:37.123Z,56.60
2022-07-26T08:59:06.221Z,57.10
2022-07-26T09:01:33.314Z,57.30
2022-07-26T09:04:31.225Z,56.20
2022-07-26T09:07:04.643Z,58.50
2022-07-26T09:09:33.831Z,57.00
2022-07-26T09:12:18.069Z,57.00
2022-07-26T09:14:48.899Z,57.10
2022-07-26T09:17:17.427Z,56.90
2022-07-26T09:19:45.192Z,56.90
2022-07-26T09:22:15.052Z,56.10
2022-07-26T09:24:48.167Z,57.00
2022-07-26T09:27:17.320Z,57.40
2022-07-26T09:29:48.148Z,56.30
2022-07-26T09:32:26.218Z,56.60
2022-07-26T09:34:58.854Z,57.00
2022-07-26T09:37:39.328Z,56.80
2022-07-26T09:40:08.807Z,54.50
2022-07-26T09:42:35.928Z,56.20
2022-07-26T09:45:03.699Z,57.10
2022-07-26T09:47:48.787Z,56.80
2022-07-26T09:50:34.161Z,55.90
2022-07-26T09:53:13.118Z,56.50
2022-07-26T09:55:45.979Z,56.40
2022-07-26T09:58:14.671Z,55.70
2022-07-26T10:00:42.935Z,56.50
2022-07-26T10:03:10.231Z,56.40
2022-07-26T10:05:37.766Z,56.40
2022-07-26T10:08:06.158Z,56.30
2022-07-26T10:10:49.822Z,56.20
2022-07-26T10:13:17.212Z,55.70
2022-07-26T10:15:49.067Z,56.60
2022-07-26T10:18:37.995Z,56.60
2022-07-26T10:21:29.536Z,55.90
2022-07-26T10:24:02.033Z,54.40
2022-07-26T10:26:31.761Z,56.00
2022-07-26T10:29:17.026Z,55.90
2022-07-26T10:31:44.823Z,57.80
2022-07-26T10:34:31.474Z,57.50
2022-07-26T10:37:00.441Z,56.90
2022-07-26T10:39:27.683Z,57.00
2022-07-26T10:42:06.169Z,57.20
2022-07-26T10:44:45.133Z,56.20
2022-07-26T10:47:15.798Z,56.50
2022-07-26T10:50:05.588Z,57.00
2022-07-26T10:52:32.810Z,56.50
2022-07-26T10:54:59.770Z,56.60
2022-07-26T10:57:28.715Z,56.70
2022-07-26T10:59:57.512Z,57.20
2022-07-26T11:02:32.062Z,56.70
2022-07-26T11:05:04.298Z,56.60
2022-07-26T11:07:31.743Z,57.10
2022-07-26T11:09:59.870Z,57.00
2022-07-26T11:12:27.520Z,58.00
2022-07-26T11:14:54.374Z,57.30
2022-07-26T11:17:26.715Z,56.50
2022-07-26T11:19:54.324Z,57.10
2022-07-26T11:22:21.511Z,56.60
2022-07-26T11:24:48.483Z,56.50
2022-07-26T11:27:15.475Z,56.60
2022-07-26T11:29:42.337Z,57.80
2022-07-26T11:32:25.240Z,57.90
2022-07-26T11:35:03.480Z,57.30
2022-07-26T11:37:30.887Z,57.50
2022-07-26T11:39:58.016Z,57.50
2022-07-26T11:42:24.833Z,56.50
2022-07-26T11:44:53.488Z,56.70
2022-07-26T11:47:25.347Z,56.50
2022-07-26T11:52:40.604Z,57.30
2022-07-26T11:55:07.964Z,57.70
2022-07-26T11:57:34.955Z,56.80
2022-07-26T12:00:02.136Z,57.00
2022-07-26T12:02:38.435Z,56.90
2022-07-26T12:05:20.138Z,57.90
2022-07-26T12:07:57.816Z,57.40
2022-07-26T12:10:25.007Z,57.50
2022-07-26T12:13:10.773Z,57.00
2022-07-26T12:15:52.577Z,55.90
2022-07-26T12:18:27.714Z,57.40
2022-07-26T12:21:06.280Z,57.70
2022-07-26T12:23:44.226Z,56.70
2022-07-26T12:26:25.468Z,57.50
2022-07-26T12:28:53.844Z,55.90
2022-07-26T12:31:39.104Z,58.10
2022-07-26T12:34:06.891Z,57.90
2022-07-26T12:36:34.027Z,56.60
2022-07-26T12:39:01.296Z,57.90
2022-07-26T12:41:36.914Z,58.10
2022-07-26T12:44:06.208Z,57.40
2022-07-26T12:46:34.977Z,57.30
2022-07-26T12:49:02.236Z,57.30
2022-07-26T12:51:29.167Z,57.60
2022-07-26T12:53:56.014Z,56.70
2022-07-26T12:56:22.794Z,56.80
2022-07-26T12:58:49.540Z,57.80
2022-07-26T13:01:16.663Z,56.70
2022-07-26T13:03:44.300Z,56.60
2022-07-26T13:06:11.275Z,58.00
2022-07-26T13:08:38.315Z,56.70
2022-07-26T13:11:05.221Z,57.40
2022-07-26T13:13:32.058Z,56.70
2022-07-26T13:15:58.868Z,56.60
2022-07-26T13:18:25.736Z,56.40
2022-07-26T13:20:52.510Z,56.50
2022-07-26T13:23:21.850Z,58.40
2022-07-26T13:25:50.062Z,57.40
2022-07-26T13:28:17.491Z,56.40
2022-07-26T13:30:45.111Z,57.80
2022-07-26T13:33:12.503Z,57.10
2022-07-26T13:35:41.120Z,58.60
2022-07-26T13:38:08.967Z,57.50
2022-07-26T13:40:36.127Z,57.20
2022-07-26T13:43:04.127Z,57.70
2022-07-26T13:45:30.960Z,57.00
2022-07-26T13:47:58.893Z,56.40
2022-07-26T13:50:26.887Z,56.30
2022-07-26T13:52:56.099Z,57.30
2022-07-26T13:55:22.996Z,57.00
2022-07-26T13:57:56.058Z,57.90
2022-07-26T14:00:28.724Z,58.10
2022-07-26T14:02:57.966Z,57.00
2022-07-26T14:05:25.846Z,57.90
2022-07-26T14:07:53.829Z,57.00
2022-07-26T14:10:22.230Z,57.00
2022-07-26T14:12:49.723Z,56.90
2022-07-26T14:15:22.250Z,57.10
2022-07-26T14:17:51.306Z,57.60
2022-07-26T14:20:18.332Z,56.90
2022-07-26T14:22:45.837Z,56.30
2022-07-26T14:25:12.750Z,57.50
2022-07-26T14:27:39.697Z,57.60
2022-07-26T14:30:06.972Z,56.10
2022-07-26T14:32:33.776Z,56.00
2022-07-26T14:35:00.623Z,57.10
2022-07-26T14:37:43.503Z,57.40
2022-07-26T14:40:14.198Z,57.40
2022-07-26T14:42:41.070Z,56.70
2022-07-26T14:45:09.905Z,57.30
2022-07-26T14:47:37.057Z,56.70
2022-07-26T14:50:07.271Z,57.00
2022-07-26T14:52:37.346Z,56.50
2022-07-26T14:55:05.496Z,56.60
2022-07-26T14:57:32.238Z,56.30
2022-07-26T14:59:59.352Z,57.00
2022-07-26T15:02:26.446Z,56.90
2022-07-26T15:04:53.411Z,55.80
2022-07-26T15:07:20.245Z,56.70
2022-07-26T15:09:47.032Z,56.70
2022-07-26T15:12:13.896Z,56.80
2022-07-26T15:14:45.241Z,56.70
2022-07-26T15:17:13.427Z,56.10
2022-07-26T15:19:40.816Z,56.00
2022-07-26T15:22:08.434Z,55.10
2022-07-26T15:24:39.729Z,55.70
2022-07-26T15:27:07.337Z,56.40
2022-07-26T15:29:35.824Z,56.10
2022-07-26T15:32:03.533Z,55.90
2022-07-26T15:34:30.382Z,55.80
2022-07-26T15:36:57.424Z,56.10
2022-07-26T15:39:24.638Z,55.50
2022-07-26T15:41:51.588Z,55.30
2022-07-26T15:44:21.589Z,56.30
2022-07-26T15:46:49.630Z,55.30
2022-07-26T15:49:17.689Z,55.30
2022-07-26T15:51:45.063Z,55.20
2022-07-26T15:54:15.164Z,55.30
2022-07-26T15:56:43.517Z,55.10
2022-07-26T15:59:10.270Z,54.80
2022-07-26T16:01:37.399Z,55.00
2022-07-26T16:04:05.575Z,54.70
2022-07-26T16:06:33.508Z,54.70
2022-07-26T16:09:18.944Z,54.50
2022-07-26T16:11:47.520Z,54.90
2022-07-26T16:14:15.207Z,54.90
2022-07-26T16:16:42.146Z,54.50
2022-07-26T16:19:09.940Z,54.80
2022-07-26T16:21:37.931Z,53.60
2022-07-26T16:24:07.505Z,54.30
2022-07-26T16:26:35.642Z,54.50
2022-07-26T16:29:03.255Z,54.20
2022-07-26T16:31:31.106Z,54.20
2022-07-26T16:33:57.941Z,54.20
2022-07-26T16:36:24.932Z,54.50
2022-07-26T16:38:51.825Z,54.40
2022-07-26T16:41:18.881Z,54.60
2022-07-26T16:43:45.641Z,53.10
2022-07-26T16:46:12.520Z,53.00
2022-07-26T16:48:39.525Z,54.40
2022-07-26T16:51:06.403Z,54.10
2022-07-26T16:53:33.269Z,54.30
2022-07-26T16:56:00.079Z,54.20
2022-07-26T16:58:26.935Z,53.00
2022-07-26T17:00:53.967Z,52.70
2022-07-26T17:03:20.763Z,54.00
2022-07-26T17:05:47.676Z,54.20
2022-07-26T17:08:14.527Z,53.90
2022-07-26T17:10:41.722Z,53.80
2022-07-26T17:13:08.600Z,53.80
2022-07-26T17:15:35.491Z,53.90
2022-07-26T17:18:02.511Z,53.80
2022-07-26T17:20:29.484Z,52.40
2022-07-26T17:22:56.620Z,53.50
2022-07-26T17:25:23.525Z,53.20
2022-07-26T17:27:50.819Z,53.40
2022-07-26T17:30:17.939Z,53.50
2022-07-26T17:32:44.862Z,53.30
2022-07-26T17:35:11.787Z,52.10
2022-07-26T17:37:38.685Z,54.20
2022-07-26T17:40:08.381Z,52.40
2022-07-26T17:42:36.814Z,52.40
2022-07-26T17:45:05.435Z,52.90
2022-07-26T17:47:32.539Z,52.70
2022-07-26T17:52:52.339Z,51.90
2022-07-26T17:55:19.892Z,54.20
2022-07-26T17:57:48.271Z,53.00
2022-07-26T18:00:19.054Z,52.80
2022-07-26T18:02:45.998Z,52.70
2022-07-26T18:05:13.137Z,53.30
2022-07-26T18:07:40.741Z,52.70
2022-07-26T18:10:08.691Z,52.70
2022-07-26T18:12:35.691Z,52.20
2022-07-26T18:15:02.406Z,52.80
2022-07-26T18:17:29.266Z,52.80
2022-07-26T18:19:56.047Z,52.90
2022-07-26T18:22:23.233Z,51.90
2022-07-26T18:24:50.064Z,52.10
2022-07-26T18:27:16.815Z,53.20
2022-07-26T18:29:43.751Z,51.90
2022-07-26T18:32:11.550Z,51.90
2022-07-26T18:34:38.362Z,53.40
2022-07-26T18:37:05.159Z,53.10
2022-07-26T18:39:32.913Z,53.50
2022-07-26T18:42:01.032Z,53.10
2022-07-26T18:44:27.880Z,52.90
2022-07-26T18:46:55.986Z,53.20
2022-07-26T18:49:23.539Z,52.80
2022-07-26T18:51:59.151Z,53.10
2022-07-26T18:54:31.038Z,52.80
2022-07-26T18:56:57.989Z,53.10
2022-07-26T18:59:24.837Z,52.70
2022-07-26T19:01:51.738Z,51.80
2022-07-26T19:04:19.249Z,51.70
2022-07-26T19:06:49.702Z,52.10
2022-07-26T19:09:16.858Z,52.40
2022-07-26T19:11:45.659Z,52.90
2022-07-26T19:14:12.625Z,52.50
2022-07-26T19:16:39.535Z,53.30
2022-07-26T19:19:06.375Z,54.40
2022-07-26T19:21:33.256Z,53.30
2022-07-26T19:24:00.073Z,54.00
2022-07-26T19:26:27.448Z,55.00
2022-07-26T19:28:54.478Z,53.70
2022-07-26T19:31:21.933Z,54.20
2022-07-26T19:33:48.812Z,54.00
2022-07-26T19:36:15.951Z,53.70
2022-07-26T19:38:52.505Z,54.40
2022-07-26T19:41:19.917Z,53.80
2022-07-26T19:43:46.756Z,54.00
2022-07-26T19:46:13.758Z,54.00
2022-07-26T19:48:40.777Z,53.90
2022-07-26T19:51:07.732Z,54.00
2022-07-26T19:53:34.521Z,53.90
2022-07-26T19:56:01.379Z,54.10
2022-07-26T19:58:29.115Z,54.10
2022-07-26T20:00:55.882Z,53.60
2022-07-26T20:03:22.735Z,54.10
2022-07-26T20:05:50.044Z,52.80
2022-07-26T20:08:16.892Z,52.70
2022-07-26T20:10:43.902Z,53.80
2022-07-26T20:13:10.827Z,54.00
2022-07-26T20:15:37.909Z,54.10
2022-07-26T20:18:04.856Z,52.70
2022-07-26T20:20:31.845Z,52.70
2022-07-26T20:22:58.759Z,54.00
2022-07-26T20:25:25.554Z,54.00
2022-07-26T20:27:52.856Z,54.00
2022-07-26T20:30:19.891Z,53.50
2022-07-26T20:32:46.776Z,52.40
2022-07-26T20:35:13.655Z,52.20
2022-07-26T20:37:41.547Z,53.30
2022-07-26T20:40:09.294Z,53.30
2022-07-26T20:42:36.528Z,53.00
2022-07-26T20:45:12.103Z,53.10
2022-07-26T20:47:40.514Z,52.70
2022-07-26T20:50:12.035Z,53.40
2022-07-26T20:52:39.312Z,52.90
2022-07-26T20:55:07.042Z,54.70
2022-07-26T20:57:33.927Z,52.70
2022-07-26T21:00:00.912Z,54.20
2022-07-26T21:02:27.970Z,53.20
2022-07-26T21:04:55.139Z,52.80
2022-07-26T21:07:22.328Z,52.10
2022-07-26T21:09:49.069Z,52.90
2022-07-26T21:12:15.985Z,53.10
2022-07-26T21:14:42.764Z,52.00
2022-07-26T21:17:12.158Z,52.00
2022-07-26T21:19:39.901Z,52.10
2022-07-26T21:22:07.220Z,52.00
2022-07-26T21:24:37.251Z,53.50
2022-07-26T21:27:05.624Z,52.70
2022-07-26T21:29:32.748Z,52.70
2022-07-26T21:32:06.718Z,52.90
2022-07-26T21:34:34.284Z,52.80
2022-07-26T21:37:01.915Z,52.80
2022-07-26T21:39:28.783Z,52.90
2022-07-26T21:41:55.670Z,53.20
2022-07-26T21:44:22.798Z,53.20
2022-07-26T21:46:50.493Z,53.20
2022-07-26T21:49:19.096Z,54.20
2022-07-26T21:51:46.279Z,52.90
2022-07-26T21:54:13.356Z,51.90
2022-07-26T21:56:40.127Z,53.20
2022-07-26T21:59:07.096Z,53.40
2022-07-26T22:01:34.018Z,53.20
2022-07-26T22:04:00.805Z,53.20
2022-07-26T22:06:27.619Z,53.50
2022-07-26T22:08:54.467Z,53.00
2022-07-26T22:11:21.507Z,53.50
2022-07-26T22:13:48.775Z,53.10
2022-07-26T22:16:15.650Z,53.00
2022-07-26T22:18:42.583Z,52.10
2022-07-26T22:21:09.416Z,52.40
2022-07-26T22:23:36.253Z,53.80
2022-07-26T22:26:04.325Z,53.70
2022-07-26T22:28:33.156Z,53.60
2022-07-26T22:31:01.159Z,53.20
2022-07-26T22:33:27.885Z,53.20
2022-07-26T22:35:54.822Z,53.60
2022-07-26T22:38:21.626Z,53.60
2022-07-26T22:40:48.483Z,53.70
2022-07-26T22:43:15.451Z,51.50
2022-07-26T22:45:42.479Z,52.70
2022-07-26T22:48:09.553Z,53.60
2022-07-26T22:50:36.607Z,53.80
2022-07-26T22:53:03.855Z,53.90
2022-07-26T22:55:31.225Z,52.60
2022-07-26T22:57:58.249Z,53.30
2022-07-26T23:00:25.126Z,52.60
2022-07-26T23:02:52.104Z,54.20
2022-07-26T23:05:19.627Z,53.90
2022-07-26T23:07:48.194Z,53.80
2022-07-26T23:10:15.824Z,53.40
2022-07-26T23:12:42.851Z,53.40
2022-07-26T23:15:10.945Z,53.70
2022-07-26T23:17:37.935Z,53.30
2022-07-26T23:20:07.180Z,54.00
2022-07-26T23:22:34.835Z,52.70
2022-07-26T23:25:01.810Z,53.50
2022-07-26T23:27:28.563Z,53.90
2022-07-26T23:29:55.398Z,53.70
2022-07-26T23:32:22.423Z,53.80
2022-07-26T23:34:49.214Z,53.80
2022-07-26T23:37:16.064Z,54.20
2022-07-26T23:39:42.870Z,52.70
2022-07-26T23:42:09.638Z,54.10
2022-07-26T23:44:36.531Z,52.70
2022-07-26T23:47:03.727Z,52.80
2022-07-26T23:49:30.823Z,52.50
2022-07-26T23:51:57.738Z,53.90
2022-07-26T23:54:24.559Z,53.80
2022-07-26T23:56:51.316Z,54.00
2022-07-26T23:59:18.188Z,54.00
